createdAt,value
2022-09-14T00:01:26.554Z,3.70
2022-09-14T00:03:56.559Z,3.05
2022-09-14T00:06:23.873Z,3.67
2022-09-14T00:08:52.770Z,3.97
2022-09-14T00:11:20.902Z,3.80
2022-09-14T00:13:48.458Z,3.20
2022-09-14T00:16:18.281Z,3.50
2022-09-14T00:18:45.292Z,2.92
2022-09-14T00:21:13.177Z,2.53
2022-09-14T00:23:42.176Z,2.42
2022-09-14T00:26:14.015Z,3.13
2022-09-14T00:28:46.288Z,2.38
2022-09-14T00:31:14.159Z,2.90
2022-09-14T00:33:45.221Z,2.17
2022-09-14T00:36:14.655Z,2.70
2022-09-14T00:38:42.135Z,2.70
2022-09-14T00:41:13.483Z,2.90
2022-09-14T00:43:56.925Z,2.40
2022-09-14T00:46:25.732Z,2.10
2022-09-14T00:48:54.200Z,2.97
2022-09-14T00:51:22.355Z,2.20
2022-09-14T00:53:50.319Z,2.22
2022-09-14T00:56:17.627Z,1.77
2022-09-14T00:58:48.210Z,2.05
2022-09-14T01:01:15.596Z,2.20
2022-09-14T01:03:42.763Z,1.80
2022-09-14T01:06:31.188Z,2.50
2022-09-14T01:09:18.376Z,1.88
2022-09-14T01:12:20.724Z,1.83
2022-09-14T01:15:07.230Z,1.85
2022-09-14T01:17:45.832Z,3.47
2022-09-14T01:20:35.304Z,3.40
2022-09-14T01:23:20.319Z,4.80
2022-09-14T01:26:07.005Z,4.85
2022-09-14T01:28:39.078Z,3.63
2022-09-14T01:31:13.339Z,4.80
2022-09-14T01:33:55.035Z,3.40
2022-09-14T01:36:23.647Z,3.60
2022-09-14T01:38:53.874Z,3.80
2022-09-14T01:43:55.158Z,6.47
2022-09-14T01:46:29.887Z,8.70
2022-09-14T01:49:06.249Z,9.60
2022-09-14T01:51:54.088Z,10.10
2022-09-14T01:54:43.795Z,8.70
2022-09-14T01:57:48.271Z,5.32
2022-09-14T02:00:17.492Z,3.63
2022-09-14T02:02:50.125Z,3.70
2022-09-14T02:05:43.597Z,2.90
2022-09-14T02:08:10.527Z,3.17
2022-09-14T02:10:37.621Z,2.70
2022-09-14T02:13:04.605Z,3.15
2022-09-14T02:15:31.572Z,4.07
2022-09-14T02:17:58.541Z,4.40
2022-09-14T02:20:34.249Z,6.43
2022-09-14T02:23:01.350Z,3.10
2022-09-14T02:25:28.401Z,3.70
2022-09-14T02:27:55.433Z,2.45
2022-09-14T02:30:22.922Z,2.03
2022-09-14T02:33:15.144Z,2.20
2022-09-14T02:35:50.082Z,1.95
2022-09-14T02:38:20.219Z,2.00
2022-09-14T02:40:53.581Z,1.83
2022-09-14T02:43:39.396Z,1.67
2022-09-14T02:46:18.370Z,2.53
2022-09-14T02:49:02.097Z,2.03
2022-09-14T02:51:54.649Z,2.45
2022-09-14T02:54:35.087Z,1.92
2022-09-14T02:57:04.332Z,1.80
2022-09-14T02:59:31.529Z,1.73
2022-09-14T03:02:00.527Z,1.60
2022-09-14T03:04:28.550Z,1.52
2022-09-14T03:06:55.954Z,2.47
2022-09-14T03:09:22.981Z,1.83
2022-09-14T03:11:49.868Z,2.30
2022-09-14T03:14:16.816Z,1.63
2022-09-14T03:16:43.865Z,1.88
2022-09-14T03:19:12.351Z,1.75
2022-09-14T03:21:39.919Z,2.00
2022-09-14T03:24:07.203Z,1.80
2022-09-14T03:26:36.922Z,2.30
2022-09-14T03:29:04.867Z,2.30
2022-09-14T03:31:32.309Z,1.50
2022-09-14T03:34:01.077Z,2.53
2022-09-14T03:36:30.386Z,2.00
2022-09-14T03:38:59.357Z,2.37
2022-09-14T03:41:26.677Z,1.88
2022-09-14T03:43:53.616Z,1.90
2022-09-14T03:46:25.028Z,2.25
2022-09-14T03:48:53.817Z,2.30
2022-09-14T03:51:20.954Z,1.90
2022-09-14T03:53:48.426Z,1.83
2022-09-14T03:56:19.274Z,1.98
2022-09-14T03:58:47.376Z,1.65
2022-09-14T04:01:17.057Z,1.90
2022-09-14T04:03:44.992Z,2.13
2022-09-14T04:06:12.615Z,2.28
2022-09-14T04:08:41.803Z,2.28
2022-09-14T04:11:24.094Z,2.38
2022-09-14T04:13:52.061Z,1.60
2022-09-14T04:16:23.665Z,2.50
2022-09-14T04:18:50.671Z,1.92
2022-09-14T04:21:20.028Z,2.10
2022-09-14T04:26:34.999Z,2.05
2022-09-14T04:29:02.152Z,2.03
2022-09-14T04:31:30.959Z,1.83
2022-09-14T04:33:58.259Z,1.63
2022-09-14T04:36:29.520Z,2.38
2022-09-14T04:38:58.534Z,2.70
2022-09-14T04:41:26.540Z,2.10
2022-09-14T04:43:55.883Z,2.38
2022-09-14T04:46:32.276Z,2.00
2022-09-14T04:48:59.636Z,2.53
2022-09-14T04:51:29.860Z,2.42
2022-09-14T04:53:59.745Z,2.47
2022-09-14T04:56:28.681Z,2.33
2022-09-14T04:59:01.922Z,2.30
2022-09-14T05:01:35.587Z,2.45
2022-09-14T05:04:04.452Z,1.92
2022-09-14T05:06:34.618Z,2.50
2022-09-14T05:09:03.449Z,2.63
2022-09-14T05:11:34.144Z,2.35
2022-09-14T05:14:02.224Z,2.30
2022-09-14T05:16:31.387Z,1.85
2022-09-14T05:19:02.114Z,2.25
2022-09-14T05:21:30.999Z,2.13
2022-09-14T05:24:08.237Z,2.50
2022-09-14T05:26:35.653Z,1.75
2022-09-14T05:29:02.947Z,1.55
2022-09-14T05:31:31.977Z,1.95
2022-09-14T05:33:59.753Z,2.78
2022-09-14T05:36:27.150Z,2.40
2022-09-14T05:38:54.212Z,2.65
2022-09-14T05:41:21.383Z,1.88
2022-09-14T05:43:48.485Z,1.98
2022-09-14T05:46:20.189Z,1.67
2022-09-14T05:48:48.448Z,1.77
2022-09-14T05:51:17.870Z,2.22
2022-09-14T05:53:55.742Z,2.53
2022-09-14T05:56:24.802Z,1.58
2022-09-14T05:58:52.817Z,2.30
2022-09-14T06:01:29.058Z,1.92
2022-09-14T06:04:05.042Z,2.95
2022-09-14T06:06:32.793Z,3.05
2022-09-14T06:09:00.490Z,2.42
2022-09-14T06:11:31.131Z,2.97
2022-09-14T06:13:58.540Z,2.40
2022-09-14T06:16:27.594Z,2.55
2022-09-14T06:18:56.358Z,2.53
2022-09-14T06:21:24.069Z,2.65
2022-09-14T06:23:52.108Z,2.20
2022-09-14T06:26:19.204Z,2.42
2022-09-14T06:28:46.186Z,2.65
2022-09-14T06:31:15.165Z,2.95
2022-09-14T06:33:46.028Z,2.53
2022-09-14T06:36:15.548Z,1.92
2022-09-14T06:38:42.736Z,2.40
2022-09-14T06:41:12.657Z,3.30
2022-09-14T06:43:41.714Z,2.90
2022-09-14T06:46:15.534Z,2.63
2022-09-14T06:48:48.890Z,3.13
2022-09-14T06:51:29.290Z,3.00
2022-09-14T06:54:00.191Z,2.75
2022-09-14T06:56:33.676Z,3.03
2022-09-14T06:59:00.740Z,2.75
2022-09-14T07:01:28.021Z,3.20
2022-09-14T07:03:55.143Z,3.00
2022-09-14T07:06:24.731Z,3.10
2022-09-14T07:08:53.017Z,3.20
2022-09-14T07:11:23.684Z,3.75
2022-09-14T07:13:50.650Z,3.65
2022-09-14T07:16:17.569Z,3.10
2022-09-14T07:18:44.532Z,3.50
2022-09-14T07:21:14.842Z,2.58
2022-09-14T07:26:16.701Z,3.13
2022-09-14T07:28:45.880Z,2.88
2022-09-14T07:31:19.479Z,2.78
2022-09-14T07:33:47.092Z,3.78
2022-09-14T07:36:14.902Z,2.70
2022-09-14T07:38:52.035Z,2.35
2022-09-14T07:41:22.096Z,2.53
2022-09-14T07:43:50.510Z,2.78
2022-09-14T07:46:17.738Z,2.40
2022-09-14T07:48:44.761Z,2.95
2022-09-14T07:51:12.365Z,2.20
2022-09-14T07:53:42.867Z,2.38
2022-09-14T07:56:13.577Z,2.08
2022-09-14T07:58:41.501Z,1.85
2022-09-14T08:01:14.187Z,2.30
2022-09-14T08:03:43.546Z,2.45
2022-09-14T08:06:19.381Z,2.70
2022-09-14T08:08:49.029Z,2.88
2022-09-14T08:11:25.186Z,2.20
2022-09-14T08:13:54.458Z,2.85
2022-09-14T08:16:22.604Z,2.25
2022-09-14T08:18:55.553Z,3.70
2022-09-14T08:21:23.279Z,2.28
2022-09-14T08:23:50.625Z,2.58
2022-09-14T08:26:20.279Z,2.38
2022-09-14T08:28:48.566Z,2.83
2022-09-14T08:31:24.514Z,2.25
2022-09-14T08:33:56.583Z,2.80
2022-09-14T08:36:24.654Z,2.05
2022-09-14T08:38:52.184Z,3.03
2022-09-14T08:41:32.958Z,3.45
2022-09-14T08:44:13.699Z,2.75
2022-09-14T08:46:48.484Z,2.83
2022-09-14T08:49:28.880Z,3.15
2022-09-14T08:51:57.100Z,3.20
2022-09-14T08:54:24.216Z,2.97
2022-09-14T08:57:09.468Z,3.45
2022-09-14T09:00:06.143Z,3.15
2022-09-14T09:02:57.999Z,2.92
2022-09-14T09:05:40.464Z,2.95
2022-09-14T09:08:19.777Z,2.65
2022-09-14T09:10:47.906Z,2.65
2022-09-14T09:13:21.603Z,3.08
2022-09-14T09:15:51.948Z,2.40
2022-09-14T09:20:58.440Z,2.78
2022-09-14T09:23:29.239Z,2.42
2022-09-14T09:26:17.480Z,2.40
2022-09-14T09:28:53.329Z,3.00
2022-09-14T09:31:36.001Z,3.28
2022-09-14T09:34:29.304Z,2.78
2022-09-14T09:37:19.369Z,2.35
2022-09-14T09:39:46.870Z,3.13
2022-09-14T09:42:28.301Z,2.88
2022-09-14T09:45:03.549Z,3.30
2022-09-14T09:47:39.379Z,2.90
2022-09-14T09:50:18.735Z,3.00
2022-09-14T09:52:57.371Z,3.40
2022-09-14T09:55:28.436Z,3.58
2022-09-14T09:57:55.553Z,3.33
2022-09-14T10:00:27.723Z,3.20
2022-09-14T10:02:55.391Z,3.92
2022-09-14T10:05:33.290Z,3.60
2022-09-14T10:08:02.381Z,3.70
2022-09-14T10:10:35.398Z,4.22
2022-09-14T10:13:05.078Z,4.90
2022-09-14T10:15:35.240Z,4.18
2022-09-14T10:18:15.422Z,4.20
2022-09-14T10:20:44.462Z,4.15
2022-09-14T10:23:20.411Z,4.30
2022-09-14T10:25:50.471Z,3.67
2022-09-14T10:28:26.346Z,4.38
2022-09-14T10:30:59.620Z,4.53
2022-09-14T10:33:26.947Z,3.80
2022-09-14T10:35:56.871Z,4.22
2022-09-14T10:38:36.191Z,4.55
2022-09-14T10:41:34.294Z,3.60
2022-09-14T10:44:30.115Z,4.47
2022-09-14T10:47:32.133Z,4.28
2022-09-14T10:50:12.894Z,3.92
2022-09-14T10:53:03.827Z,3.83
2022-09-14T10:55:47.569Z,3.40
2022-09-14T10:58:44.351Z,3.90
2022-09-14T11:01:42.977Z,3.92
2022-09-14T11:04:44.098Z,4.25
2022-09-14T11:07:18.510Z,4.40
2022-09-14T11:10:01.528Z,3.90
2022-09-14T11:12:48.669Z,3.67
2022-09-14T11:15:32.105Z,4.30
2022-09-14T11:18:39.963Z,3.97
2022-09-14T11:21:35.030Z,3.13
2022-09-14T11:24:37.930Z,3.97
2022-09-14T11:27:30.231Z,3.50
2022-09-14T11:30:06.120Z,4.47
2022-09-14T11:32:42.463Z,4.03
2022-09-14T11:35:18.244Z,3.63
2022-09-14T11:37:51.015Z,3.72
2022-09-14T11:40:32.981Z,4.78
2022-09-14T11:43:09.893Z,4.60
2022-09-14T11:45:44.107Z,4.05
2022-09-14T11:48:42.806Z,4.20
2022-09-14T11:51:22.548Z,4.32
2022-09-14T11:53:51.023Z,4.38
2022-09-14T11:56:30.725Z,5.20
2022-09-14T11:59:00.437Z,5.03
2022-09-14T12:01:39.523Z,5.95
2022-09-14T12:04:09.404Z,5.75
2022-09-14T12:06:36.790Z,5.05
2022-09-14T12:09:13.275Z,5.45
2022-09-14T12:11:42.436Z,4.68
2022-09-14T12:14:24.665Z,4.75
2022-09-14T12:17:39.563Z,5.20
2022-09-14T12:20:36.945Z,5.53
2022-09-14T12:23:13.344Z,5.68
2022-09-14T12:26:01.767Z,5.05
2022-09-14T12:28:38.319Z,5.75
2022-09-14T12:31:13.315Z,5.35
2022-09-14T12:33:42.036Z,5.53
2022-09-14T12:36:22.512Z,6.05
2022-09-14T12:38:49.979Z,5.72
2022-09-14T12:41:20.303Z,5.05
2022-09-14T12:46:21.327Z,5.32
2022-09-14T12:51:36.725Z,6.22
2022-09-14T12:54:09.491Z,4.85
2022-09-14T12:57:10.458Z,5.15
2022-09-14T13:00:15.871Z,5.63
2022-09-14T13:03:29.585Z,4.72
2022-09-14T13:05:56.726Z,5.35
2022-09-14T13:08:26.869Z,6.25
2022-09-14T13:10:54.284Z,5.97
2022-09-14T13:13:25.741Z,4.57
2022-09-14T13:15:55.932Z,5.45
2022-09-14T13:21:00.424Z,5.68
2022-09-14T13:23:41.531Z,6.13
2022-09-14T13:26:16.410Z,5.63
2022-09-14T13:28:46.083Z,5.80
2022-09-14T13:31:17.854Z,6.53
2022-09-14T13:33:51.576Z,6.00
2022-09-14T13:36:25.478Z,5.90
2022-09-14T13:38:53.430Z,5.55
2022-09-14T13:41:25.196Z,6.00
2022-09-14T13:43:55.809Z,5.82
2022-09-14T13:46:25.152Z,5.43
2022-09-14T13:48:53.217Z,4.80
2022-09-14T13:51:28.629Z,4.60
2022-09-14T13:53:58.879Z,6.13
2022-09-14T13:59:07.382Z,5.18
2022-09-14T14:01:46.630Z,4.90
2022-09-14T14:04:37.978Z,5.10
2022-09-14T14:07:15.282Z,4.72
2022-09-14T14:09:54.106Z,5.38
2022-09-14T14:12:26.658Z,5.32
2022-09-14T14:15:01.870Z,5.40
2022-09-14T14:17:29.141Z,5.20
2022-09-14T14:20:24.013Z,4.82
2022-09-14T14:22:58.768Z,5.60
2022-09-14T14:25:33.486Z,5.32
2022-09-14T14:28:06.606Z,4.40
2022-09-14T14:30:40.416Z,5.45
2022-09-14T14:33:13.540Z,5.18
2022-09-14T14:35:41.685Z,5.70
2022-09-14T14:38:09.567Z,5.32
2022-09-14T14:40:38.303Z,5.60
2022-09-14T14:43:06.241Z,5.57
2022-09-14T14:45:36.328Z,6.03
2022-09-14T14:48:04.554Z,6.30
2022-09-14T14:50:34.162Z,5.65
2022-09-14T14:53:02.171Z,7.00
2022-09-14T14:55:33.293Z,6.88
2022-09-14T14:58:02.557Z,6.10
2022-09-14T15:00:32.571Z,6.05
2022-09-14T15:03:00.007Z,5.50
2022-09-14T15:05:27.457Z,5.25
2022-09-14T15:07:56.003Z,4.35
2022-09-14T15:10:25.829Z,5.00
2022-09-14T15:12:52.763Z,3.58
2022-09-14T15:15:23.924Z,3.40
2022-09-14T15:17:51.704Z,3.45
2022-09-14T15:20:19.938Z,2.92
2022-09-14T15:22:48.255Z,3.50
2022-09-14T15:25:17.219Z,3.53
2022-09-14T15:27:44.168Z,3.40
2022-09-14T15:30:12.387Z,3.08
2022-09-14T15:32:39.937Z,3.58
2022-09-14T15:35:10.047Z,4.03
2022-09-14T15:37:37.120Z,3.40
2022-09-14T15:40:04.949Z,3.38
2022-09-14T15:42:31.986Z,4.25
2022-09-14T15:44:58.826Z,4.32
2022-09-14T15:47:25.819Z,4.18
2022-09-14T15:49:52.934Z,4.93
2022-09-14T15:52:20.218Z,4.75
2022-09-14T15:54:47.426Z,5.22
2022-09-14T15:57:14.373Z,6.03
2022-09-14T15:59:41.365Z,5.90
2022-09-14T16:02:09.806Z,5.68
2022-09-14T16:04:37.840Z,6.20
2022-09-14T16:07:09.919Z,7.38
2022-09-14T16:09:38.810Z,6.88
2022-09-14T16:12:07.084Z,7.03
2022-09-14T16:14:34.287Z,6.93
2022-09-14T16:17:01.939Z,8.52
2022-09-14T16:19:29.252Z,7.47
2022-09-14T16:21:56.876Z,7.30
2022-09-14T16:24:25.407Z,7.20
2022-09-14T16:26:52.706Z,7.97
2022-09-14T16:29:22.133Z,6.75
2022-09-14T16:31:49.355Z,7.03
2022-09-14T16:34:25.673Z,6.93
2022-09-14T16:36:52.972Z,6.35
2022-09-14T16:39:25.380Z,8.13
2022-09-14T16:41:56.274Z,6.70
2022-09-14T16:44:25.986Z,6.90
2022-09-14T16:46:55.070Z,6.95
2022-09-14T16:49:26.988Z,6.80
2022-09-14T16:51:55.455Z,7.78
2022-09-14T16:54:24.441Z,7.80
2022-09-14T16:56:51.720Z,6.53
2022-09-14T16:59:20.553Z,6.53
2022-09-14T17:01:54.024Z,7.75
2022-09-14T17:04:22.289Z,6.95
2022-09-14T17:06:51.756Z,7.70
2022-09-14T17:09:25.262Z,6.68
2022-09-14T17:11:54.275Z,6.18
2022-09-14T17:14:27.285Z,6.95
2022-09-14T17:16:54.390Z,5.85
2022-09-14T17:19:21.840Z,5.63
2022-09-14T17:21:49.297Z,6.13
2022-09-14T17:24:19.322Z,5.10
2022-09-14T17:26:47.207Z,4.72
2022-09-14T17:29:15.342Z,5.05
2022-09-14T17:31:44.431Z,5.90
2022-09-14T17:34:13.421Z,4.68
2022-09-14T17:36:40.532Z,3.15
2022-09-14T17:39:11.606Z,3.67
2022-09-14T17:41:40.331Z,3.63
2022-09-14T17:44:09.927Z,2.75
2022-09-14T17:46:43.235Z,3.42
2022-09-14T17:49:16.106Z,3.35
2022-09-14T17:51:45.258Z,3.03
2022-09-14T17:54:12.841Z,3.15
2022-09-14T17:56:40.174Z,3.45
2022-09-14T17:59:15.639Z,3.28
2022-09-14T18:01:42.679Z,4.82
2022-09-14T18:04:12.164Z,4.68
2022-09-14T18:06:45.619Z,4.28
2022-09-14T18:09:15.446Z,3.90
2022-09-14T18:11:43.677Z,3.72
2022-09-14T18:14:14.721Z,3.75
2022-09-14T18:16:43.047Z,4.93
2022-09-14T18:19:10.396Z,4.03
2022-09-14T18:21:37.435Z,4.07
2022-09-14T18:24:05.086Z,4.75
2022-09-14T18:26:32.078Z,4.60
2022-09-14T18:28:59.221Z,4.32
2022-09-14T18:31:27.797Z,4.78
2022-09-14T18:33:59.306Z,3.47
2022-09-14T18:36:29.294Z,3.78
2022-09-14T18:41:28.606Z,3.65
2022-09-14T18:43:55.788Z,3.90
2022-09-14T18:46:27.617Z,4.32
2022-09-14T18:48:57.672Z,4.30
2022-09-14T18:51:25.495Z,4.23
2022-09-14T18:53:57.628Z,3.95
2022-09-14T18:56:25.142Z,4.72
2022-09-14T18:58:52.253Z,4.07
2022-09-14T19:01:21.618Z,4.63
2022-09-14T19:03:49.049Z,4.60
2022-09-14T19:06:18.076Z,4.03
2022-09-14T19:08:45.655Z,4.38
2022-09-14T19:11:24.327Z,4.25
2022-09-14T19:14:10.219Z,3.97
2022-09-14T19:16:39.429Z,4.00
2022-09-14T19:19:07.953Z,4.70
2022-09-14T19:21:35.716Z,4.32
2022-09-14T19:24:06.217Z,4.68
2022-09-14T19:26:44.790Z,4.22
2022-09-14T19:29:14.740Z,4.20
2022-09-14T19:31:42.119Z,4.72
2022-09-14T19:34:11.168Z,4.43
2022-09-14T19:36:38.254Z,4.88
2022-09-14T19:39:05.962Z,5.00
2022-09-14T19:41:34.720Z,5.68
2022-09-14T19:44:03.187Z,5.32
2022-09-14T19:46:31.558Z,4.22
2022-09-14T19:49:00.007Z,4.75
2022-09-14T19:51:29.019Z,4.57
2022-09-14T19:53:59.289Z,4.38
2022-09-14T19:56:30.759Z,3.47
2022-09-14T19:59:00.139Z,4.50
2022-09-14T20:01:29.454Z,3.67
2022-09-14T20:03:57.636Z,3.50
2022-09-14T20:06:32.153Z,3.20
2022-09-14T20:09:05.665Z,3.75
2022-09-14T20:11:34.982Z,4.07
2022-09-14T20:14:06.276Z,3.05
2022-09-14T20:16:42.206Z,4.00
2022-09-14T20:19:18.684Z,3.35
2022-09-14T20:21:51.072Z,3.22
2022-09-14T20:24:22.402Z,3.95
2022-09-14T20:26:52.003Z,3.28
2022-09-14T20:29:21.654Z,3.30
2022-09-14T20:31:55.951Z,3.65
2022-09-14T20:34:23.262Z,5.00
2022-09-14T20:36:52.468Z,3.58
2022-09-14T20:39:22.204Z,3.10
2022-09-14T20:41:49.540Z,3.60
2022-09-14T20:44:21.890Z,3.50
2022-09-14T20:46:49.907Z,3.33
2022-09-14T20:49:19.250Z,3.45
2022-09-14T20:51:46.838Z,3.73
2022-09-14T20:54:15.756Z,3.80
2022-09-14T20:56:43.705Z,3.55
2022-09-14T20:59:13.752Z,3.90
2022-09-14T21:01:43.285Z,4.18
2022-09-14T21:04:12.973Z,3.90
2022-09-14T21:06:46.218Z,4.55
2022-09-14T21:09:14.369Z,3.47
2022-09-14T21:11:42.233Z,4.13
2022-09-14T21:14:09.278Z,4.00
2022-09-14T21:16:38.422Z,3.45
2022-09-14T21:19:07.849Z,3.72
2022-09-14T21:21:35.675Z,3.93
2022-09-14T21:24:05.001Z,4.03
2022-09-14T21:26:34.456Z,3.83
2022-09-14T21:29:05.476Z,4.07
2022-09-14T21:31:34.655Z,3.63
2022-09-14T21:34:03.069Z,4.60
2022-09-14T21:36:34.716Z,4.68
2022-09-14T21:39:14.963Z,3.67
2022-09-14T21:41:43.422Z,4.68
2022-09-14T21:44:10.763Z,4.28
2022-09-14T21:46:38.037Z,4.70
2022-09-14T21:49:05.258Z,4.50
2022-09-14T21:51:37.702Z,5.20
2022-09-14T21:54:10.027Z,4.05
2022-09-14T21:56:39.655Z,4.15
2022-09-14T21:59:21.631Z,4.65
2022-09-14T22:01:49.369Z,4.13
2022-09-14T22:04:19.127Z,4.57
2022-09-14T22:06:46.651Z,4.50
2022-09-14T22:09:16.038Z,4.18
2022-09-14T22:11:43.314Z,4.60
2022-09-14T22:14:18.168Z,4.03
2022-09-14T22:16:45.982Z,5.03
2022-09-14T22:19:21.617Z,4.20
2022-09-14T22:21:49.496Z,4.40
2022-09-14T22:24:37.156Z,5.00
2022-09-14T22:27:09.597Z,6.50
2022-09-14T22:29:40.989Z,5.00
2022-09-14T22:32:10.306Z,5.38
2022-09-14T22:34:39.641Z,5.38
2022-09-14T22:37:07.235Z,5.30
2022-09-14T22:39:34.196Z,6.10
2022-09-14T22:42:01.188Z,5.60
2022-09-14T22:44:28.362Z,5.60
2022-09-14T22:46:55.380Z,6.38
2022-09-14T22:49:22.420Z,6.32
2022-09-14T22:51:49.403Z,6.55
2022-09-14T22:54:16.335Z,5.55
2022-09-14T22:56:43.315Z,5.88
2022-09-14T22:59:10.858Z,6.35
2022-09-14T23:01:40.032Z,6.18
2022-09-14T23:04:10.278Z,5.97
2022-09-14T23:06:40.711Z,6.78
2022-09-14T23:09:10.180Z,5.63
2022-09-14T23:11:37.809Z,5.60
2022-09-14T23:14:05.028Z,4.75
2022-09-14T23:16:32.136Z,6.45
2022-09-14T23:19:01.163Z,5.45
2022-09-14T23:21:29.989Z,5.55
2022-09-14T23:23:59.690Z,6.90
2022-09-14T23:26:27.525Z,6.13
2022-09-14T23:29:03.243Z,6.45
2022-09-14T23:31:32.176Z,6.45
2022-09-14T23:34:01.090Z,8.20
2022-09-14T23:36:28.634Z,8.32
2022-09-14T23:38:56.100Z,7.90
2022-09-14T23:41:24.833Z,7.53
2022-09-14T23:43:52.242Z,6.95
2022-09-14T23:46:20.351Z,7.72
2022-09-14T23:48:47.988Z,6.93
2022-09-14T23:51:15.649Z,8.98
2022-09-14T23:53:43.322Z,9.10
2022-09-14T23:56:11.324Z,9.98
2022-09-14T23:58:38.935Z,8.65
